KROX/ROX METAR and TAF weather

Enter ICAO airport designator
Station Type Date Time Source
KROX METAR 2023/01/29 19:55 UTC NOAA

KROX 291955Z AUTO 23005KT 10SM CLR M22/M26 A3028 RMK AO2


Station Type Date Time Source
KROX Decoded METAR 2023/01/29 19:55 UTC NOAA

Roseau, Roseau Municipal Airport/Rudy Billberg Field, MN, United States (KROX) 48-51N 095-42W
Jan 29, 2023 - 02:55 PM EST / 2023.01.29 1955 UTC
Wind: from the SW (230 degrees) at 6 MPH (5 KT):0
Visibility: 10 mile(s):0
Sky conditions: clear
Temperature: -7 F (-22 C)
Windchill: -20 F (-29 C):2
Dew Point: -14 F (-26 C)
Relative Humidity: 69%
Pressure (altimeter): 30.28 in. Hg (1025 hPa)
ob: KROX 291955Z AUTO 23005KT 10SM CLR M22/M26 A3028 RMK AO2
cycle: 20

Station Type Date Time Source
KROX TAF UTC NOAA

Error!

Example: see airport list